Time;durP1;ratioP1;P1;durP2;ratioP2;P2;SDS_P1;SDS_P2;PMS_P1;PMS_P2;Temp;Humidity;BMP_temperature;BMP_pressure;BME280_temperature;BME280_humidity;BME280_pressure;Samples;Min_cycle;Max_cycle;Signal;HPM_P1;HPM_P2
2020/12/11 00:28:23;;;;;;;;;32.00;18.90;;;;;0.58;100.00;100453.92;495914;108;408848;-50
2020/12/11 00:29:25;;;;;;;;;45.11;38.11;;;;;0.46;100.00;100464.73;498104;109;385589;-50
2020/12/11 00:30:27;;;;;;;;;45.67;35.67;;;;;0.50;100.00;100456.81;496378;109;385327;-50
2020/12/11 00:31:29;;;;;;;;;18.67;11.78;;;;;0.50;100.00;100456.81;494861;109;378909;-50
2020/12/11 00:32:31;;;;;;;;;54.67;44.33;;;;;0.51;100.00;100458.48;498918;109;387059;-50
2020/12/11 00:33:33;;;;;;;;;47.78;41.33;;;;;0.51;100.00;100465.39;494088;109;387060;-50
2020/12/11 00:34:35;;;;;;;;;45.60;31.10;;;;;0.55;100.00;100456.63;498799;109;386895;-53
2020/12/11 00:35:37;;;;;;;;;41.20;34.00;;;;;0.57;100.00;100478.05;498690;109;386314;-51
2020/12/11 00:36:41;;;;;;;;;39.00;31.50;;;;;0.54;100.00;100447.20;495372;109;385293;-51
2020/12/11 00:37:43;;;;;;;;;50.33;42.56;;;;;0.49;100.00;100460.29;496443;109;386910;-52
2020/12/11 00:38:45;;;;;;;;;50.10;39.10;;;;;0.54;100.00;100454.94;498304;109;386364;-51
2020/12/11 00:39:47;;;;;;;;;35.11;31.33;;;;;0.52;100.00;100443.84;498994;109;382841;-50
2020/12/11 00:40:49;;;;;;;;;33.44;30.67;;;;;0.52;100.00;100449.00;498434;109;384629;-52
2020/12/11 00:41:51;;;;;;;;;39.90;35.00;;;;;0.52;100.00;100449.00;498888;109;385418;-50
2020/12/11 00:42:53;;;;;;;;;40.11;32.22;;;;;0.51;100.00;100448.16;497943;109;385996;-50
2020/12/11 00:43:55;;;;;;;;;54.80;41.10;;;;;0.51;100.00;100444.75;496368;109;387229;-50
2020/12/11 00:44:57;;;;;;;;;45.78;35.11;;;;;0.51;100.00;100444.75;493647;109;387691;-53
2020/12/11 00:45:59;;;;;;;;;27.33;20.33;;;;;0.54;100.00;100442.88;491165;109;383717;-50
2020/12/11 00:47:04;;;;;;;;;42.44;35.22;;;;;0.54;100.00;100429.98;498183;109;385874;-51
2020/12/11 00:48:06;;;;;;;;;27.10;20.70;;;;;0.52;100.00;100436.11;495518;109;382836;-50
2020/12/11 00:49:08;;;;;;;;;27.11;20.56;;;;;0.51;100.00;100424.95;496035;109;383269;-50
2020/12/11 00:50:11;;;;;;;;;39.90;31.20;;;;;0.52;100.00;100436.94;498614;109;385409;-50
2020/12/11 00:51:18;;;;;;;;;47.44;37.00;;;;;0.52;100.00;100429.20;498778;109;386093;-50
2020/12/11 00:52:20;;;;;;;;;39.10;33.10;;;;;0.55;100.00;100439.40;491298;109;386111;-49
2020/12/11 00:53:22;;;;;;;;;31.89;30.78;;;;;0.49;100.00;100447.39;498835;109;384116;-48
2020/12/11 00:54:24;;;;;;;;;54.30;45.70;;;;;0.53;100.00;100438.62;497421;109;385679;-49
2020/12/11 00:55:27;;;;;;;;;38.40;31.80;;;;;0.53;100.00;100450.69;496022;109;384104;-49
2020/12/11 00:56:29;;;;;;;;;43.22;34.44;;;;;0.55;100.00;100447.14;495691;109;386266;-49
2020/12/11 00:57:30;;;;;;;;;48.89;40.22;;;;;0.54;100.00;100449.78;497732;109;386490;-48
2020/12/11 00:58:32;;;;;;;;;46.89;39.78;;;;;0.55;100.00;100451.46;498209;109;387345;-49
2020/12/11 00:59:34;;;;;;;;;41.44;32.56;;;;;0.52;100.00;100436.11;498807;109;387103;-50
2020/12/11 01:00:37;;;;;;;;;47.10;34.50;;;;;0.59;100.00;100437.53;496659;109;387515;-50
2020/12/11 01:01:39;;;;;;;;;53.70;39.70;;;;;0.53;100.00;100438.62;496649;109;387498;-50
2020/12/11 01:02:41;;;;;;;;;46.44;38.89;;;;;0.58;100.00;100446.17;495373;109;385950;-49
2020/12/11 01:03:43;;;;;;;;;27.67;24.11;;;;;0.58;100.00;100446.17;495281;109;383837;-49
2020/12/11 01:04:45;;;;;;;;;43.44;38.00;;;;;0.56;100.00;100450.56;498779;109;390310;-49
2020/12/11 01:05:47;;;;;;;;;49.11;40.11;;;;;0.56;100.00;100443.66;498419;109;386344;-49
2020/12/11 01:06:50;;;;;;;;;38.80;30.50;;;;;0.55;100.00;100444.56;498213;109;385576;-53
2020/12/11 01:07:51;;;;;;;;;25.78;21.67;;;;;0.55;100.00;100443.72;484607;112;381973;-49
2020/12/11 01:08:53;;;;;;;;;51.44;41.11;;;;;0.43;100.00;100426.16;487710;111;387033;-49
2020/12/11 01:09:56;;;;;;;;;29.60;29.20;;;;;0.43;100.00;100426.16;498326;109;388833;-50
2020/12/11 01:10:58;;;;;;;;;25.00;19.67;;;;;0.55;100.00;100430.81;494662;109;383178;-50
2020/12/11 01:12:00;;;;;;;;;53.89;43.67;;;;;0.55;100.00;100430.81;498196;109;386276;-50
2020/12/11 01:13:01;;;;;;;;;22.11;20.22;;;;;0.52;100.00;100421.46;493537;109;385286;-49
2020/12/11 01:14:03;;;;;;;;;44.00;37.00;;;;;0.49;100.00;100443.97;497385;109;387064;-49
2020/12/11 01:15:05;;;;;;;;;21.00;15.00;;;;;0.43;100.00;100421.84;498995;109;378982;-50
2020/12/11 01:16:08;;;;;;;;;43.50;39.20;;;;;0.43;100.00;100421.84;495227;109;391609;-49
2020/12/11 01:17:09;;;;;;;;;41.33;36.44;;;;;0.52;100.00;100429.20;498141;109;385492;-50
2020/12/11 01:18:11;;;;;;;;;42.11;32.89;;;;;0.50;100.00;100420.69;497769;109;386615;-49
2020/12/11 01:19:13;;;;;;;;;31.11;21.89;;;;;0.53;100.00;100442.95;498457;109;386620;-51
2020/12/11 01:20:16;;;;;;;;;32.00;27.90;;;;;0.53;100.00;100430.88;498747;109;382197;-49
2020/12/11 01:21:20;;;;;;;;;44.50;37.40;;;;;0.51;100.00;100427.52;497949;109;384545;-50
2020/12/11 01:22:22;;;;;;;;;28.60;26.50;;;;;0.50;100.00;100432.75;496232;109;384842;-53
2020/12/11 01:23:24;;;;;;;;;32.44;19.78;;;;;0.55;100.00;100441.14;498047;109;383682;-50
2020/12/11 01:24:26;;;;;;;;;40.70;33.90;;;;;0.48;100.00;100432.81;498427;109;385579;-49
2020/12/11 01:25:28;;;;;;;;;28.22;26.78;;;;;0.51;100.00;100432.69;494539;109;389542;-48
2020/12/11 01:26:31;;;;;;;;;37.90;31.50;;;;;0.49;100.00;100431.91;497569;109;385933;-49
2020/12/11 01:27:33;;;;;;;;;40.67;30.44;;;;;0.50;100.00;100436.16;496547;109;386517;-49
2020/12/11 01:28:35;;;;;;;;;36.56;27.00;;;;;0.49;100.00;100438.81;496556;109;385785;-50
2020/12/11 01:29:37;;;;;;;;;27.10;24.60;;;;;0.48;100.00;100443.13;496255;109;384026;-49
2020/12/11 01:30:40;;;;;;;;;34.82;28.82;;;;;0.48;100.00;100435.39;497055;109;390807;-49
2020/12/11 01:31:42;;;;;;;;;17.80;10.50;;;;;0.51;100.00;100426.69;497851;109;379548;-49
2020/12/11 01:32:44;;;;;;;;;35.78;26.67;;;;;0.52;100.00;100444.69;497185;109;385156;-48
2020/12/11 01:33:47;;;;;;;;;36.00;31.33;;;;;0.53;100.00;100425.72;495980;109;385544;-50
2020/12/11 01:34:48;;;;;;;;;19.10;12.70;;;;;0.51;100.00;100448.16;497453;109;382937;-49
2020/12/11 01:35:50;;;;;;;;;33.78;32.11;;;;;-0.35;100.00;100297.66;497076;109;383938;-48
2020/12/11 01:36:53;;;;;;;;;32.30;26.90;;;;;0.53;100.00;100435.20;496549;109;385845;-48
2020/12/11 01:37:54;;;;;;;;;34.78;26.11;;;;;0.51;100.00;100437.84;496230;109;384883;-49
2020/12/11 01:38:57;;;;;;;;;28.70;24.10;;;;;0.50;100.00;100430.16;497009;109;381065;-48
2020/12/11 01:39:59;;;;;;;;;38.56;32.33;;;;;0.49;100.00;100442.23;489377;110;385600;-50
2020/12/11 01:41:00;;;;;;;;;41.78;34.00;;;;;0.51;100.00;100440.42;497640;109;385488;-49
2020/12/11 01:42:10;;;;;;;;;30.22;22.00;;;;;0.55;100.00;100439.40;497173;110;384448;-49
2020/12/11 01:43:13;;;;;;;;;36.60;26.50;;;;;0.52;100.00;100442.10;494148;109;386679;-49
2020/12/11 01:44:15;;;;;;;;;24.10;21.90;;;;;0.49;100.00;100441.39;496708;109;381529;-49
2020/12/11 01:45:16;;;;;;;;;28.67;23.56;;;;;0.51;100.00;100437.84;497087;109;383005;-48
2020/12/11 01:46:19;;;;;;;;;23.56;15.67;;;;;0.51;100.00;100437.84;496478;109;383452;-49
2020/12/11 01:47:21;;;;;;;;;39.10;34.20;;;;;0.52;100.00;100430.94;495842;109;385613;-49
2020/12/11 01:48:23;;;;;;;;;35.80;30.70;;;;;0.52;100.00;100430.94;497508;109;384539;-49
2020/12/11 01:49:25;;;;;;;;;32.11;26.44;;;;;0.49;100.00;100434.48;495763;109;384887;-49
2020/12/11 01:50:29;;;;;;;;;32.90;27.30;;;;;0.54;100.00;100426.56;493486;110;384640;-50
2020/12/11 01:51:32;;;;;;;;;27.10;21.80;;;;;0.55;100.00;100433.40;495592;109;381661;-50
2020/12/11 01:52:35;;;;;;;;;31.00;28.70;;;;;0.52;100.00;100426.63;496388;109;384319;-49
2020/12/11 01:53:37;;;;;;;;;34.00;30.10;;;;;0.52;100.00;100426.63;497485;109;384986;-49
2020/12/11 01:54:39;;;;;;;;;22.44;12.33;;;;;0.55;100.00;100426.50;496884;109;380051;-49
2020/12/11 01:55:42;;;;;;;;;32.67;27.78;;;;;0.48;100.00;100444.88;495579;109;385950;-50
2020/12/11 01:56:57;;;;;;;;;38.60;29.10;;;;;0.50;100.00;100425.84;494668;109;385165;-48
2020/12/11 01:58:03;;;;;;;;;33.27;25.09;;;;;0.46;100.00;100424.30;492024;109;388306;-50
2020/12/11 01:59:05;;;;;;;;;38.90;30.50;;;;;0.46;100.00;100416.55;495304;109;385924;-50
2020/12/11 02:00:08;;;;;;;;;40.10;34.20;;;;;0.46;100.00;100416.55;496984;109;385185;-49
2020/12/11 02:01:11;;;;;;;;;30.10;25.80;;;;;0.43;100.00;100426.16;496806;109;384374;-49
2020/12/11 02:02:13;;;;;;;;;36.56;22.56;;;;;0.40;100.00;100428.83;496755;109;389902;-49
2020/12/11 02:03:15;;;;;;;;;26.89;23.56;;;;;0.36;100.00;100433.27;497038;109;383578;-50
2020/12/11 02:04:17;;;;;;;;;36.60;30.70;;;;;0.38;100.00;100436.63;493876;109;384085;-49
2020/12/11 02:05:19;;;;;;;;;37.00;28.89;;;;;0.38;100.00;100436.63;496058;109;385873;-49
2020/12/11 02:06:21;;;;;;;;;31.56;25.00;;;;;0.36;100.00;100420.37;494617;109;384142;-49
2020/12/11 02:07:23;;;;;;;;;37.60;31.30;;;;;0.36;100.00;100420.37;486647;112;387098;-50
2020/12/11 02:08:25;;;;;;;;;41.22;34.44;;;;;0.36;100.00;100415.21;486516;112;384277;-49
2020/12/11 02:09:27;;;;;;;;;30.78;25.78;;;;;0.36;100.00;100424.70;494939;109;384826;-50
2020/12/11 02:10:29;;;;;;;;;29.00;19.44;;;;;0.39;100.00;100415.09;494913;109;385901;-50
2020/12/11 02:11:30;;;;;;;;;22.78;19.78;;;;;0.39;100.00;100415.09;496950;109;383491;-50
2020/12/11 02:12:32;;;;;;;;;48.67;39.22;;;;;0.32;100.00;100413.66;495296;109;386529;-49
2020/12/11 02:13:34;;;;;;;;;38.44;27.22;;;;;0.32;100.00;100413.66;496715;109;384603;-50
2020/12/11 02:14:35;;;;;;;;;26.67;18.33;;;;;0.31;100.00;100396.50;497272;109;382684;-52
2020/12/11 02:15:37;;;;;;;;;35.78;28.33;;;;;0.30;100.00;100416.30;497610;109;385670;-49
2020/12/11 02:16:40;;;;;;;;;34.00;27.60;;;;;0.32;100.00;100417.98;495703;109;385518;-49
2020/12/11 02:17:42;;;;;;;;;31.80;25.00;;;;;0.33;100.00;100411.92;496743;109;383596;-52
2020/12/11 02:18:44;;;;;;;;;29.78;26.11;;;;;0.33;100.00;100396.44;495642;109;384270;-49
2020/12/11 02:19:46;;;;;;;;;31.11;25.89;;;;;0.28;100.00;100418.10;496392;109;384851;-49
2020/12/11 02:20:50;;;;;;;;;33.00;28.90;;;;;0.25;100.00;100410.48;496777;109;389363;-49
2020/12/11 02:21:52;;;;;;;;;22.60;16.40;;;;;0.25;100.00;100410.48;494548;109;381232;-49
2020/12/11 02:22:54;;;;;;;;;18.40;14.10;;;;;0.28;100.00;100414.69;496491;109;380153;-49
2020/12/11 02:23:57;;;;;;;;;24.10;17.30;;;;;0.24;100.00;100426.02;496675;109;380563;-48
2020/12/11 02:24:58;;;;;;;;;40.44;33.44;;;;;0.21;100.00;100416.67;493427;109;391846;-49
2020/12/11 02:26:00;;;;;;;;;31.67;25.44;;;;;0.25;100.00;100423.38;496024;110;385047;-50
2020/12/11 02:27:03;;;;;;;;;31.70;25.80;;;;;0.25;100.00;100423.38;496487;109;387092;-49
2020/12/11 02:28:05;;;;;;;;;31.90;31.20;;;;;0.24;100.00;100420.86;496364;109;385837;-49
2020/12/11 02:29:43;;;;;;;;;34.70;26.60;;;;;0.26;100.00;100417.33;493598;109;383590;-48
2020/12/11 02:30:45;;;;;;;;;37.30;30.90;;;;;0.26;100.00;100412.16;496840;109;386752;-49
2020/12/11 02:31:47;;;;;;;;;33.33;30.22;;;;;0.24;100.00;100405.39;496319;109;384444;-48
2020/12/11 02:32:49;;;;;;;;;27.67;23.11;;;;;0.21;100.00;100419.25;496513;109;381818;-49
2020/12/11 02:33:52;;;;;;;;;11.00;10.30;;;;;0.24;100.00;100413.97;494731;109;375299;-49
2020/12/11 02:34:54;;;;;;;;;46.56;39.33;;;;;0.19;100.00;100415.02;497570;109;386958;-49
2020/12/11 02:35:57;;;;;;;;;35.70;29.20;;;;;0.19;100.00;100415.02;495974;109;384993;-49
2020/12/11 02:37:01;;;;;;;;;34.33;24.56;;;;;0.19;100.00;100422.75;492578;109;383314;-49
2020/12/11 02:38:03;;;;;;;;;32.20;25.80;;;;;0.21;100.00;100406.35;494675;109;385205;-49
2020/12/11 02:39:04;;;;;;;;;32.22;29.11;;;;;0.24;100.00;100411.39;494709;109;383334;-49
2020/12/11 02:40:07;;;;;;;;;35.90;23.50;;;;;0.24;100.00;100411.39;496337;109;383100;-49
2020/12/11 02:41:09;;;;;;;;;33.33;30.11;;;;;0.28;100.00;100410.36;496458;109;384656;-49
2020/12/11 02:42:10;;;;;;;;;39.89;33.78;;;;;0.24;100.00;100424.28;496869;109;385182;-49
2020/12/11 02:43:15;;;;;;;;;23.78;15.44;;;;;0.24;100.00;100424.28;496489;109;381683;-49
2020/12/11 02:44:18;;;;;;;;;39.40;26.90;;;;;0.23;100.00;100409.71;492430;110;386619;-50
2020/12/11 02:45:20;;;;;;;;;30.67;25.22;;;;;0.24;100.00;100421.70;489311;110;385589;-50
2020/12/11 02:46:23;;;;;;;;;33.80;26.00;;;;;0.26;100.00;100419.91;485641;111;384707;-50
2020/12/11 02:47:25;;;;;;;;;28.11;24.56;;;;;0.25;100.00;100414.80;488201;111;383082;-50
2020/12/11 02:48:27;;;;;;;;;27.00;19.11;;;;;0.26;100.00;100411.33;485008;111;384021;-49
2020/12/11 02:49:29;;;;;;;;;21.56;20.11;;;;;0.26;100.00;100417.33;481334;112;383206;-49
2020/12/11 02:50:31;;;;;;;;;28.22;23.22;;;;;0.26;100.00;100414.75;482936;112;384339;-48
2020/12/11 02:51:33;;;;;;;;;36.78;24.89;;;;;0.21;100.00;100418.41;482125;112;386649;-49
2020/12/11 02:52:35;;;;;;;;;25.56;22.11;;;;;0.21;100.00;100418.41;486114;111;382580;-51
2020/12/11 02:53:39;;;;;;;;;22.56;18.78;;;;;0.19;100.00;100413.28;486051;111;382156;-49
2020/12/11 02:54:41;;;;;;;;;39.40;31.00;;;;;0.22;100.00;100410.61;485633;111;384112;-49
2020/12/11 02:55:42;;;;;;;;;15.56;11.67;;;;;0.20;100.00;100430.47;484646;112;376993;-49
2020/12/11 02:56:45;;;;;;;;;30.80;26.00;;;;;0.20;100.00;100430.47;485956;111;384642;-50
2020/12/11 02:57:47;;;;;;;;;24.78;21.67;;;;;0.21;100.00;100418.41;487934;112;381763;-49
2020/12/11 02:58:49;;;;;;;;;25.44;21.56;;;;;0.21;100.00;100433.88;485795;111;383372;-49
2020/12/11 02:59:50;;;;;;;;;36.00;29.00;;;;;0.21;100.00;100423.56;487922;111;385695;-48
2020/12/11 03:00:52;;;;;;;;;35.56;29.78;;;;;0.21;100.00;100432.14;486241;111;384297;-49
2020/12/11 03:01:55;;;;;;;;;31.90;24.70;;;;;0.20;100.00;100433.05;484966;112;383686;-48
2020/12/11 03:02:57;;;;;;;;;34.78;28.22;;;;;0.21;100.00;100418.41;485597;112;384760;-48
2020/12/11 03:03:59;;;;;;;;;22.44;18.00;;;;;0.20;100.00;100411.54;481616;112;381956;-49
2020/12/11 03:05:01;;;;;;;;;23.56;19.67;;;;;0.20;100.00;100411.54;485245;112;382257;-49
2020/12/11 03:06:03;;;;;;;;;31.33;26.78;;;;;0.23;100.00;100420.03;485061;111;385463;-49
2020/12/11 03:07:04;;;;;;;;;23.89;23.00;;;;;0.23;100.00;100420.03;487564;112;381453;-49
2020/12/11 03:08:06;;;;;;;;;25.89;19.89;;;;;0.23;100.00;100424.34;488151;111;382521;-49
2020/12/11 03:09:08;;;;;;;;;24.78;13.78;;;;;0.20;100.00;100445.94;488589;111;383171;-48
2020/12/11 03:10:10;;;;;;;;;31.90;28.10;;;;;0.21;100.00;100423.56;486761;110;385093;-48
2020/12/11 03:11:12;;;;;;;;;26.40;18.70;;;;;0.20;100.00;100443.36;488564;111;382440;-48
2020/12/11 03:12:16;;;;;;;;;29.33;19.33;;;;;0.21;100.00;100434.72;488527;111;384793;-48
2020/12/11 03:13:18;;;;;;;;;22.10;18.70;;;;;0.18;100.00;100429.66;488470;111;382504;-49
2020/12/11 03:14:19;;;;;;;;;46.89;37.44;;;;;0.20;100.00;100429.59;488416;111;385682;-48
2020/12/11 03:15:21;;;;;;;;;38.00;27.44;;;;;0.21;100.00;100431.30;488080;111;387554;-48
2020/12/11 03:16:26;;;;;;;;;27.90;23.90;;;;;0.23;100.00;100440.66;488414;111;383302;-48
2020/12/11 03:17:27;;;;;;;;;34.89;26.00;;;;;0.18;100.00;100437.39;487150;111;387621;-49
2020/12/11 03:18:29;;;;;;;;;31.78;28.00;;;;;0.21;100.00;100442.46;492843;109;384650;-48
2020/12/11 03:19:31;;;;;;;;;34.78;28.11;;;;;0.22;100.00;100441.56;497744;109;384632;-48
2020/12/11 03:20:34;;;;;;;;;36.80;32.10;;;;;0.17;100.00;100442.61;496472;109;384528;-49
2020/12/11 03:21:36;;;;;;;;;19.44;14.11;;;;;0.17;100.00;100442.61;496061;110;382059;-51
2020/12/11 03:22:38;;;;;;;;;23.89;16.11;;;;;0.19;100.00;100435.65;497363;109;378582;-49
2020/12/11 03:23:39;;;;;;;;;47.00;35.89;;;;;0.19;100.00;100435.65;497638;109;386818;-49
2020/12/11 03:24:41;;;;;;;;;32.56;22.00;;;;;0.16;100.00;100428.88;497075;109;382710;-50
2020/12/11 03:25:43;;;;;;;;;31.44;24.89;;;;;0.16;100.00;100428.88;495049;109;384167;-48
2020/12/11 03:26:45;;;;;;;;;31.67;28.00;;;;;0.21;100.00;100426.98;496520;109;383932;-54
2020/12/11 03:27:47;;;;;;;;;22.00;15.67;;;;;0.22;100.00;100440.72;495326;109;381264;-48
2020/12/11 03:28:51;;;;;;;;;26.67;26.33;;;;;0.22;100.00;100425.25;495815;109;383674;-49
2020/12/11 03:29:52;;;;;;;;;33.00;26.20;;;;;0.22;100.00;100425.25;490821;110;389076;-48
2020/12/11 03:30:55;;;;;;;;;10.40;9.70;;;;;0.18;100.00;100432.23;497251;109;379106;-49
2020/12/11 03:31:57;;;;;;;;;34.00;22.20;;;;;0.14;100.00;100430.67;496947;110;383629;-49
2020/12/11 03:32:59;;;;;;;;;29.67;22.78;;;;;0.14;100.00;100416.94;492986;110;385438;-48
2020/12/11 03:34:01;;;;;;;;;32.67;26.00;;;;;0.17;100.00;100417.66;496379;109;383694;-50
2020/12/11 03:35:03;;;;;;;;;32.44;26.11;;;;;0.13;100.00;100426.41;497704;109;385574;-48
2020/12/11 03:36:05;;;;;;;;;26.11;21.22;;;;;0.16;100.00;100420.30;497424;109;383060;-49
2020/12/11 03:37:07;;;;;;;;;22.78;15.89;;;;;0.12;100.00;100432.47;496683;109;380379;-49
2020/12/11 03:38:08;;;;;;;;;32.67;25.11;;;;;0.12;100.00;100421.31;495705;109;383348;-49
2020/12/11 03:39:10;;;;;;;;;23.33;21.11;;;;;0.13;100.00;100413.52;496840;109;382894;-48
2020/12/11 03:40:13;;;;;;;;;41.80;35.70;;;;;0.13;100.00;100413.52;495276;109;390303;-48
2020/12/11 03:41:16;;;;;;;;;23.89;20.22;;;;;0.11;100.00;100415.32;495681;109;380718;-49
2020/12/11 03:42:18;;;;;;;;;32.64;28.00;;;;;0.11;100.00;100419.64;495655;109;384984;-49
2020/12/11 03:43:19;;;;;;;;;21.33;18.11;;;;;0.07;100.00;100413.77;497556;109;381283;-49
2020/12/11 03:44:21;;;;;;;;;28.00;22.33;;;;;0.05;100.00;100415.56;496801;109;382282;-49
2020/12/11 03:45:23;;;;;;;;;13.89;12.11;;;;;0.11;100.00;100410.16;496693;109;378349;-48
2020/12/11 03:46:26;;;;;;;;;29.60;24.10;;;;;0.10;100.00;100415.38;496038;109;381235;-48
2020/12/11 03:47:30;;;;;;;;;33.90;25.60;;;;;0.10;100.00;100413.64;497272;109;386363;-48
2020/12/11 03:48:32;;;;;;;;;33.00;27.40;;;;;0.06;100.00;100416.41;496411;109;383056;-48
2020/12/11 03:49:34;;;;;;;;;32.78;30.11;;;;;0.07;100.00;100408.61;496635;109;385058;-48
2020/12/11 03:50:36;;;;;;;;;24.50;21.90;;;;;0.09;100.00;100416.28;497357;109;383713;-49
2020/12/11 03:51:38;;;;;;;;;11.78;10.00;;;;;-0.03;100.00;100428.72;496884;109;377390;-50
2020/12/11 03:52:40;;;;;;;;;29.60;18.00;;;;;-0.03;100.00;100428.72;495580;109;384305;-47
2020/12/11 03:53:43;;;;;;;;;25.33;24.56;;;;;0.01;100.00;100420.90;497243;109;383043;-48
2020/12/11 03:54:44;;;;;;;;;23.00;20.89;;;;;0.03;100.00;100421.68;497195;109;382448;-49
2020/12/11 03:55:46;;;;;;;;;27.56;21.00;;;;;0.00;100.00;100432.95;496744;109;382252;-49
2020/12/11 03:56:49;;;;;;;;;24.70;17.60;;;;;-0.04;100.00;100432.20;496936;109;384712;-50
2020/12/11 03:57:51;;;;;;;;;28.30;21.90;;;;;-0.05;100.00;100430.52;497578;109;384946;-48
2020/12/11 03:58:53;;;;;;;;;34.67;27.00;;;;;-0.06;100.00;100443.47;497128;109;388246;-48
2020/12/11 03:59:55;;;;;;;;;29.20;24.70;;;;;-0.06;100.00;100443.47;496171;109;384265;-49
2020/12/11 04:00:57;;;;;;;;;30.33;26.00;;;;;-0.05;100.00;100439.98;496265;110;383569;-48
2020/12/11 04:01:59;;;;;;;;;30.56;22.11;;;;;0.02;100.00;100420.00;497757;109;383085;-48
2020/12/11 04:03:01;;;;;;;;;41.00;28.50;;;;;-0.01;100.00;100421.77;494962;109;386767;-48
2020/12/11 04:04:03;;;;;;;;;20.56;16.56;;;;;-0.02;100.00;100430.40;497523;109;380526;-49
2020/12/11 04:05:05;;;;;;;;;26.00;20.22;;;;;-0.02;100.00;100430.40;494306;109;382213;-48
2020/12/11 04:06:08;;;;;;;;;23.40;14.70;;;;;-0.03;100.00;100423.56;497100;109;381429;-48
2020/12/11 04:07:31;;;;;;;;;22.80;16.70;;;;;-0.06;100.00;100426.26;497107;109;381002;-49
2020/12/11 04:08:34;;;;;;;;;25.40;17.10;;;;;-0.04;100.00;100431.36;494311;109;383724;-48
2020/12/11 04:09:36;;;;;;;;;20.45;20.00;;;;;-0.04;100.00;100428.78;496266;109;381419;-49
2020/12/11 04:10:40;;;;;;;;;26.60;22.40;;;;;-0.03;100.00;100430.46;494767;110;383437;-51
2020/12/11 04:11:42;;;;;;;;;24.22;19.11;;;;;-0.01;100.00;100421.77;496074;110;382943;-47
2020/12/11 04:12:44;;;;;;;;;41.78;33.00;;;;;-0.01;100.00;100421.77;492027;110;387209;-48
2020/12/11 04:13:46;;;;;;;;;37.30;30.10;;;;;-0.01;100.00;100432.08;490996;110;385336;-48
2020/12/11 04:14:48;;;;;;;;;35.78;26.22;;;;;0.01;100.00;100439.78;490795;110;384530;-48
2020/12/11 04:15:49;;;;;;;;;23.56;20.22;;;;;0.01;100.00;100439.78;491033;110;381982;-49
2020/12/11 04:16:52;;;;;;;;;32.30;27.00;;;;;-0.03;100.00;100435.62;492544;110;385025;-48
2020/12/11 04:17:54;;;;;;;;;23.10;20.00;;;;;-0.04;100.00;100446.83;494879;110;383925;-48
2020/12/11 04:18:57;;;;;;;;;30.90;24.50;;;;;-0.07;100.00;100437.47;492413;110;383586;-48
2020/12/11 04:19:59;;;;;;;;;22.20;14.20;;;;;-0.03;100.00;100425.30;488336;110;381879;-49
2020/12/11 04:21:01;;;;;;;;;20.67;20.56;;;;;-0.07;100.00;100459.83;493017;110;381768;-48
2020/12/11 04:22:02;;;;;;;;;17.78;14.11;;;;;-0.04;100.00;100439.09;493696;110;376905;-48
2020/12/11 04:23:04;;;;;;;;;22.44;20.44;;;;;-0.03;100.00;100443.34;493288;110;382717;-49
2020/12/11 04:24:06;;;;;;;;;27.78;17.33;;;;;-0.13;100.00;100442.86;494548;109;388780;-48
2020/12/11 04:25:08;;;;;;;;;13.67;8.00;;;;;-0.13;100.00;100442.86;490593;110;376763;-48
2020/12/11 04:26:10;;;;;;;;;19.11;12.89;;;;;-0.14;100.00;100455.80;491212;110;381492;-48
2020/12/11 04:27:12;;;;;;;;;23.11;16.11;;;;;-0.13;100.00;100429.97;488308;110;381837;-48
2020/12/11 04:28:14;;;;;;;;;14.22;7.33;;;;;-0.14;100.00;100435.19;494436;110;383822;-48
2020/12/11 04:29:15;;;;;;;;;35.89;25.44;;;;;-0.14;100.00;100435.19;491730;110;384882;-48
2020/12/11 04:30:18;;;;;;;;;19.10;16.70;;;;;-0.16;100.00;100437.82;485867;110;380106;-47
2020/12/11 04:31:20;;;;;;;;;36.22;28.22;;;;;-0.12;100.00;100435.97;484704;111;386376;-47
2020/12/11 04:32:22;;;;;;;;;31.44;27.44;;;;;-0.12;100.00;100435.97;487179;111;383581;-48
2020/12/11 04:33:24;;;;;;;;;24.30;16.90;;;;;-0.16;100.00;100439.56;486923;111;384915;-50
2020/12/11 04:34:27;;;;;;;;;31.09;26.27;;;;;-0.12;100.00;100434.23;480496;111;382689;-48
2020/12/11 04:35:29;;;;;;;;;35.33;28.11;;;;;-0.09;100.00;100444.42;480167;111;390580;-48
2020/12/11 04:36:31;;;;;;;;;32.10;23.40;;;;;-0.12;100.00;100441.96;492441;110;383322;-47
2020/12/11 04:37:33;;;;;;;;;36.80;28.00;;;;;-0.08;100.00;100437.53;492642;110;386258;-48
2020/12/11 04:38:35;;;;;;;;;27.11;15.22;;;;;-0.06;100.00;100436.57;493380;110;382036;-51
2020/12/11 04:39:37;;;;;;;;;27.33;26.67;;;;;-0.09;100.00;100439.27;491449;110;387877;-47
2020/12/11 04:40:39;;;;;;;;;27.90;26.80;;;;;-0.09;100.00;100438.42;488360;110;383603;-48
2020/12/11 04:41:41;;;;;;;;;32.00;25.22;;;;;-0.13;100.00;100437.70;492205;110;384049;-48
2020/12/11 04:42:45;;;;;;;;;43.56;34.44;;;;;-0.07;100.00;100423.74;491509;110;387082;-47
2020/12/11 04:43:51;;;;;;;;;20.50;15.20;;;;;-0.07;100.00;100423.74;490419;109;380193;-50
2020/12/11 04:44:53;;;;;;;;;32.30;28.00;;;;;-0.13;100.00;100439.44;489473;110;384291;-48
2020/12/11 04:45:55;;;;;;;;;16.56;16.56;;;;;-0.11;100.00;100438.48;493719;110;380895;-47
2020/12/11 04:47:06;;;;;;;;;8.70;8.20;;;;;-0.14;100.00;100438.60;493863;110;374550;-49
2020/12/11 04:48:09;;;;;;;;;45.80;37.70;;;;;-0.17;100.00;100436.14;492083;110;387058;-48
2020/12/11 04:49:10;;;;;;;;;42.40;35.00;;;;;-0.17;100.00;100436.14;493719;109;385314;-47
2020/12/11 04:50:18;;;;;;;;;37.18;28.27;;;;;-0.13;100.00;100442.02;490112;110;383489;-48
2020/12/11 04:51:20;;;;;;;;;37.40;32.80;;;;;-0.14;100.00;100442.92;492096;110;392324;-48
2020/12/11 04:52:23;;;;;;;;;42.00;29.60;;;;;-0.17;100.00;100443.87;481833;112;385487;-48
2020/12/11 04:53:26;;;;;;;;;38.50;33.80;;;;;-0.16;100.00;100447.30;487368;110;384004;-48
2020/12/11 04:54:28;;;;;;;;;40.50;33.50;;;;;-0.16;100.00;100447.30;484938;111;385154;-48
2020/12/11 04:55:37;;;;;;;;;47.89;41.44;;;;;-0.19;100.00;100452.56;489349;109;385775;-48
2020/12/11 04:56:40;;;;;;;;;30.90;26.40;;;;;-0.18;100.00;100461.97;489143;110;385862;-48
2020/12/11 04:57:50;;;;;;;;;37.78;31.22;;;;;-0.18;100.00;100449.09;490714;110;384817;-48
2020/12/11 04:58:54;;;;;;;;;28.00;17.70;;;;;-0.18;100.00;100444.77;489029;111;383481;-47
2020/12/11 04:59:56;;;;;;;;;41.20;35.70;;;;;-0.18;100.00;100459.40;489182;111;385842;-48
2020/12/11 05:01:03;;;;;;;;;32.11;22.44;;;;;-0.19;100.00;100444.83;484843;111;382969;-49
2020/12/11 05:02:09;;;;;;;;;17.80;12.40;;;;;-0.19;100.00;100444.83;491574;110;377189;-48
2020/12/11 05:03:14;;;;;;;;;32.00;25.90;;;;;-0.18;100.00;100454.24;485425;110;384128;-49
2020/12/11 05:04:16;;;;;;;;;34.00;27.70;;;;;-0.18;100.00;100444.77;493575;110;384621;-55
2020/12/11 05:05:18;;;;;;;;;32.11;27.89;;;;;-0.18;100.00;100444.77;493994;109;384543;-47
2020/12/11 05:06:20;;;;;;;;;30.40;25.30;;;;;-0.28;100.00;100456.30;489898;110;381856;-47
2020/12/11 05:07:23;;;;;;;;;31.30;26.50;;;;;-0.23;100.00;100450.97;491849;110;384778;-49
2020/12/11 05:08:25;;;;;;;;;6.11;2.00;;;;;-0.22;100.00;100452.64;493338;110;374285;-48